Time;durP1;ratioP1;P1;durP2;ratioP2;P2;SDS_P1;SDS_P2;PMS_P1;PMS_P2;Temp;Humidity;BMP_temperature;BMP_pressure;BME280_temperature;BME280_humidity;BME280_pressure;Samples;Min_cycle;Max_cycle;Signal;HPM_P1;HPM_P2
2023/10/20 00:01:45;;;;;;;3.60;2.20;;;14.50;99.90;;;;;;4993198;28;20026;-92
2023/10/20 00:04:14;;;;;;;3.03;2.10;;;14.50;99.90;;;;;;4994513;28;20022;-93
2023/10/20 00:06:39;;;;;;;3.90;2.83;;;14.50;99.90;;;;;;4994840;28;20031;-93
2023/10/20 00:09:06;;;;;;;5.78;3.25;;;14.50;99.90;;;;;;4999425;28;20030;-94
2023/10/20 00:11:32;;;;;;;5.60;3.40;;;14.40;99.90;;;;;;5003383;28;20041;-91
2023/10/20 00:14:00;;;;;;;4.88;3.85;;;14.40;99.90;;;;;;4998850;28;20022;-92
2023/10/20 00:16:29;;;;;;;6.25;4.60;;;14.40;99.90;;;;;;4991773;28;20030;-92
2023/10/20 00:18:56;;;;;;;7.60;5.00;;;14.40;99.90;;;;;;5000297;28;20026;-94
2023/10/20 00:21:24;;;;;;;9.80;5.35;;;14.40;99.90;;;;;;4996971;28;20018;-93
2023/10/20 00:23:49;;;;;;;6.20;5.10;;;14.40;99.90;;;;;;4997340;28;20459;-93
2023/10/20 00:26:15;;;;;;;9.23;4.97;;;14.40;99.90;;;;;;4998587;28;20066;-92
2023/10/20 00:28:41;;;;;;;11.05;5.07;;;14.30;99.90;;;;;;4997668;28;20076;-93
2023/10/20 00:31:07;;;;;;;7.18;4.32;;;14.30;99.90;;;;;;4996545;28;20054;-92
2023/10/20 00:33:32;;;;;;;7.47;3.88;;;14.30;99.90;;;;;;4997095;28;20036;-93
2023/10/20 00:35:58;;;;;;;9.13;3.65;;;14.30;99.90;;;;;;4996766;28;20023;-93
2023/10/20 00:38:23;;;;;;;8.25;4.43;;;14.30;99.90;;;;;;4995181;28;20046;-92
2023/10/20 00:40:49;;;;;;;7.00;3.83;;;14.30;99.90;;;;;;4997765;28;20041;-92
2023/10/20 00:43:15;;;;;;;6.53;3.63;;;14.30;99.90;;;;;;4996758;28;20034;-91
2023/10/20 00:45:43;;;;;;;6.25;3.25;;;14.30;99.90;;;;;;4997251;28;20022;-92
2023/10/20 00:48:12;;;;;;;3.65;3.00;;;14.30;99.90;;;;;;4997707;28;20030;-91
2023/10/20 00:50:39;;;;;;;7.07;3.85;;;14.30;99.90;;;;;;4991363;28;20666;-92
2023/10/20 00:53:06;;;;;;;6.70;3.20;;;14.30;99.90;;;;;;4997350;28;20114;-92
2023/10/20 00:55:33;;;;;;;6.03;3.10;;;14.30;99.90;;;;;;4996625;28;20076;-93
2023/10/20 00:57:59;;;;;;;6.35;2.92;;;14.30;99.90;;;;;;4995830;28;20117;-92
2023/10/20 01:00:25;;;;;;;4.68;2.70;;;14.30;99.90;;;;;;4996263;28;20030;-92
2023/10/20 01:02:53;;;;;;;5.05;2.80;;;14.30;99.90;;;;;;4997631;28;20077;-92
2023/10/20 01:05:26;;;;;;;8.77;3.13;;;14.20;99.90;;;;;;4995768;28;20069;-93
2023/10/20 01:07:52;;;;;;;4.32;2.72;;;14.20;99.90;;;;;;4996653;28;20248;-92
2023/10/20 01:10:18;;;;;;;3.85;2.67;;;14.20;99.90;;;;;;5012933;28;20026;-92
2023/10/20 01:12:44;;;;;;;5.93;2.95;;;14.20;99.90;;;;;;4999802;28;20070;-92
2023/10/20 01:15:13;;;;;;;2.97;2.50;;;14.20;99.90;;;;;;4999484;28;20030;-91
2023/10/20 01:17:39;;;;;;;5.60;2.63;;;14.20;99.90;;;;;;4999526;28;20019;-91
2023/10/20 01:20:06;;;;;;;4.18;2.20;;;14.20;99.90;;;;;;4996201;28;20025;-90
2023/10/20 01:22:32;;;;;;;5.40;2.40;;;14.20;99.90;;;;;;4996658;28;20109;-91
2023/10/20 01:24:59;;;;;;;4.43;2.72;;;14.20;99.90;;;;;;4996729;28;20112;-91
2023/10/20 01:27:24;;;;;;;2.72;2.22;;;14.20;99.90;;;;;;4995937;28;20034;-91
2023/10/20 01:29:50;;;;;;;8.75;2.40;;;14.20;99.90;;;;;;4995564;28;20392;-91
2023/10/20 01:32:16;;;;;;;4.88;2.17;;;14.10;99.90;;;;;;4994071;28;20034;-92
2023/10/20 01:34:41;;;;;;;4.72;2.00;;;14.10;99.90;;;;;;4997464;28;20022;-91
2023/10/20 01:37:11;;;;;;;5.95;1.80;;;14.20;99.90;;;;;;4995472;28;20031;-91
2023/10/20 01:39:41;;;;;;;3.63;1.67;;;14.10;99.90;;;;;;4997053;28;20014;-91
2023/10/20 01:42:07;;;;;;;3.33;1.88;;;14.10;99.90;;;;;;4996607;28;20027;-90
2023/10/20 01:44:34;;;;;;;8.10;2.85;;;14.10;99.90;;;;;;4997156;28;20030;-91
2023/10/20 01:47:00;;;;;;;3.60;1.95;;;14.10;99.90;;;;;;4998234;28;20042;-91
2023/10/20 01:49:26;;;;;;;4.22;1.55;;;14.10;99.90;;;;;;4996837;28;20030;-91
2023/10/20 01:51:52;;;;;;;6.45;1.75;;;14.10;99.90;;;;;;4996091;28;20085;-91
2023/10/20 01:54:17;;;;;;;5.32;1.60;;;14.10;99.90;;;;;;4995491;28;20026;-91
2023/10/20 01:56:43;;;;;;;5.18;1.73;;;14.00;99.90;;;;;;4995519;28;20022;-92
2023/10/20 01:59:10;;;;;;;3.08;1.80;;;14.00;99.90;;;;;;4995573;28;20026;-91
2023/10/20 02:01:36;;;;;;;3.55;1.85;;;14.00;99.90;;;;;;4995772;28;20040;-89
2023/10/20 02:04:01;;;;;;;3.22;1.80;;;14.00;99.90;;;;;;4995651;28;20117;-91
2023/10/20 02:06:27;;;;;;;5.03;2.13;;;14.00;99.90;;;;;;4997004;28;20073;-89
2023/10/20 02:08:53;;;;;;;5.00;2.28;;;14.10;99.90;;;;;;4995753;28;20098;-90
2023/10/20 02:11:18;;;;;;;3.47;2.40;;;14.00;99.90;;;;;;4995745;28;20018;-90
2023/10/20 02:13:44;;;;;;;6.88;2.63;;;14.00;99.90;;;;;;4995990;28;20037;-92
2023/10/20 02:16:11;;;;;;;4.38;2.40;;;14.10;99.90;;;;;;4995517;28;20105;-92
2023/10/20 02:18:37;;;;;;;4.22;2.30;;;14.00;99.90;;;;;;4998441;28;20476;-92
2023/10/20 02:21:03;;;;;;;2.70;2.08;;;14.00;99.90;;;;;;5006915;28;20030;-92
2023/10/20 02:23:30;;;;;;;2.17;1.50;;;14.10;99.90;;;;;;5014438;28;20533;-90
2023/10/20 02:25:57;;;;;;;5.00;2.28;;;14.10;99.90;;;;;;5015682;28;20109;-90
2023/10/20 02:28:23;;;;;;;4.57;2.30;;;14.20;99.90;;;;;;5014495;28;20061;-91
2023/10/20 02:30:49;;;;;;;5.70;2.30;;;14.20;99.90;;;;;;5014545;28;20476;-91
2023/10/20 02:33:15;;;;;;;4.68;2.28;;;14.20;99.90;;;;;;5015142;28;20056;-93
2023/10/20 02:35:42;;;;;;;5.28;2.15;;;14.20;99.90;;;;;;5014051;28;20018;-90
2023/10/20 02:38:08;;;;;;;7.88;1.98;;;14.20;99.90;;;;;;5015164;28;20185;-91
2023/10/20 02:40:34;;;;;;;2.28;1.92;;;14.30;99.90;;;;;;5013828;28;20026;-91
2023/10/20 02:42:59;;;;;;;4.25;2.00;;;14.30;99.90;;;;;;5013993;28;20026;-92
2023/10/20 02:45:25;;;;;;;2.03;1.60;;;14.30;99.90;;;;;;5013910;28;20542;-91
2023/10/20 02:47:51;;;;;;;3.13;1.10;;;14.30;99.90;;;;;;5014305;28;20404;-90
2023/10/20 02:50:17;;;;;;;0.70;0.70;;;14.30;99.90;;;;;;5015625;28;20161;-91
2023/10/20 02:52:44;;;;;;;1.98;0.65;;;14.30;99.90;;;;;;5014828;28;20029;-91
2023/10/20 02:55:09;;;;;;;0.88;0.50;;;14.30;99.90;;;;;;5014669;28;20061;-91
2023/10/20 02:57:36;;;;;;;1.67;0.50;;;14.30;99.90;;;;;;5014780;28;20053;-93
2023/10/20 03:00:09;;;;;;;1.95;0.70;;;14.20;99.90;;;;;;5014431;28;20548;-93
2023/10/20 03:02:36;;;;;;;1.00;0.65;;;14.20;99.90;;;;;;5015097;28;20034;-93
2023/10/20 03:05:02;;;;;;;1.30;0.45;;;14.10;99.90;;;;;;5013812;28;20396;-91
2023/10/20 03:07:28;;;;;;;1.38;0.40;;;14.10;99.90;;;;;;5014654;28;20041;-91
2023/10/20 03:09:55;;;;;;;2.72;0.63;;;14.00;99.90;;;;;;5014738;28;20049;-92
2023/10/20 03:12:21;;;;;;;2.25;0.70;;;14.00;99.90;;;;;;5020316;28;20041;-91
2023/10/20 03:14:46;;;;;;;0.93;0.60;;;14.00;99.90;;;;;;5021261;28;20022;-91
2023/10/20 03:17:12;;;;;;;0.77;0.50;;;14.00;99.90;;;;;;5024749;28;20033;-90
2023/10/20 03:19:44;;;;;;;0.60;0.50;;;13.90;99.90;;;;;;5025323;28;20018;-91
2023/10/20 03:22:12;;;;;;;1.10;0.95;;;13.90;99.90;;;;;;5013401;28;20062;-91
2023/10/20 03:24:39;;;;;;;3.50;0.70;;;13.90;99.90;;;;;;5013865;28;20022;-90
2023/10/20 03:27:04;;;;;;;1.75;0.80;;;13.90;99.90;;;;;;5013696;28;20042;-89
2023/10/20 03:29:30;;;;;;;1.23;0.77;;;13.90;99.90;;;;;;5007193;28;20037;-90
2023/10/20 03:31:56;;;;;;;1.23;0.90;;;13.90;99.90;;;;;;4997481;28;20054;-93
2023/10/20 03:34:21;;;;;;;1.30;0.70;;;13.90;99.90;;;;;;4994025;28;20041;-91
2023/10/20 03:36:47;;;;;;;1.10;0.50;;;13.90;99.90;;;;;;4994148;28;20101;-92
2023/10/20 03:39:21;;;;;;;2.08;0.77;;;13.80;99.90;;;;;;4993783;28;20082;-90
2023/10/20 03:41:50;;;;;;;1.20;0.60;;;13.80;99.90;;;;;;4995142;28;20073;-91
2023/10/20 03:44:22;;;;;;;2.10;0.50;;;13.80;99.90;;;;;;4995108;28;20044;-94
2023/10/20 03:46:49;;;;;;;3.53;0.50;;;13.80;99.90;;;;;;4993362;28;20026;-93
2023/10/20 03:49:16;;;;;;;2.28;0.40;;;13.90;99.90;;;;;;4994225;28;20084;-90
2023/10/20 03:52:00;;;;;;;3.85;0.47;;;13.90;99.90;;;;;;4994297;28;20022;-94
2023/10/20 03:54:26;;;;;;;0.30;0.30;;;13.90;99.90;;;;;;4995437;28;20034;-93
2023/10/20 03:56:51;;;;;;;0.88;0.68;;;13.90;99.90;;;;;;4995103;28;20037;-90
2023/10/20 03:59:18;;;;;;;3.25;0.50;;;13.90;99.90;;;;;;4994047;28;20076;-90
2023/10/20 04:01:44;;;;;;;0.88;0.60;;;13.80;99.90;;;;;;4993251;28;20037;-92
2023/10/20 04:04:11;;;;;;;1.17;0.43;;;13.80;99.90;;;;;;4993033;28;20023;-92
2023/10/20 04:06:37;;;;;;;0.90;0.50;;;13.80;99.90;;;;;;4993203;28;20125;-90
2023/10/20 04:09:09;;;;;;;0.30;0.30;;;13.70;99.90;;;;;;4994651;28;20058;-92
2023/10/20 04:11:35;;;;;;;1.55;0.50;;;13.70;99.90;;;;;;4993742;28;20041;-93
2023/10/20 04:14:03;;;;;;;3.70;0.30;;;13.70;99.90;;;;;;4993141;28;20031;-93
2023/10/20 04:16:31;;;;;;;2.60;0.40;;;13.70;99.90;;;;;;4992895;28;20045;-96
2023/10/20 04:18:58;;;;;;;1.77;0.28;;;13.70;99.90;;;;;;4994145;28;20023;-95
2023/10/20 04:21:25;;;;;;;0.28;0.13;;;13.70;99.90;;;;;;4993670;28;20073;-94
2023/10/20 04:23:51;;;;;;;0.55;0.30;;;13.70;99.90;;;;;;4993180;28;20034;-94
2023/10/20 04:26:23;;;;;;;2.38;0.70;;;13.70;99.90;;;;;;4994063;28;20119;-94
2023/10/20 04:29:02;;;;;;;0.63;0.45;;;13.70;99.90;;;;;;4994123;28;20500;-94
2023/10/20 05:04:14;;;;;;;4.47;1.90;;;13.60;99.90;;;;;;4918975;29;20124;-93
2023/10/20 05:06:43;;;;;;;5.40;2.20;;;13.60;99.90;;;;;;4919137;29;20044;-92
2023/10/20 05:09:12;;;;;;;4.88;3.30;;;13.60;99.90;;;;;;4903092;29;20183;-94
2023/10/20 05:11:39;;;;;;;4.90;2.58;;;13.50;99.90;;;;;;4918811;29;20032;-92
2023/10/20 05:14:04;;;;;;;3.75;2.20;;;13.50;99.90;;;;;;4918830;29;20043;-93
2023/10/20 05:16:33;;;;;;;6.05;3.10;;;13.50;99.90;;;;;;4920153;29;20033;-94
2023/10/20 05:19:05;;;;;;;6.65;2.90;;;13.50;99.90;;;;;;4918843;29;20028;-94
2023/10/20 05:21:38;;;;;;;3.22;2.15;;;13.50;99.90;;;;;;4918639;29;20033;-95
2023/10/20 05:24:04;;;;;;;4.75;2.17;;;13.40;99.90;;;;;;4918886;29;20036;-93
2023/10/20 05:26:31;;;;;;;9.82;2.80;;;13.40;99.90;;;;;;4918312;29;20049;-93
2023/10/20 05:28:57;;;;;;;3.67;2.35;;;13.40;99.90;;;;;;4917869;29;20024;-94
2023/10/20 05:31:27;;;;;;;5.05;2.33;;;13.30;99.90;;;;;;4918200;29;20487;-94
2023/10/20 05:33:53;;;;;;;8.80;2.42;;;13.30;99.90;;;;;;4973342;28;20406;-92
2023/10/20 05:36:19;;;;;;;5.15;2.58;;;13.30;99.90;;;;;;4978048;28;20102;-92
2023/10/20 05:38:45;;;;;;;6.85;2.72;;;13.20;99.90;;;;;;4976439;28;20141;-94
2023/10/20 05:41:13;;;;;;;3.92;2.40;;;13.20;99.90;;;;;;4977180;28;20031;-94
2023/10/20 05:43:41;;;;;;;4.93;2.45;;;13.20;99.90;;;;;;4976583;28;20113;-93
2023/10/20 05:46:12;;;;;;;5.35;2.40;;;13.10;99.90;;;;;;4976537;28;20027;-93
2023/10/20 05:48:39;;;;;;;6.20;2.63;;;13.10;99.90;;;;;;4977377;28;20038;-92
2023/10/20 05:51:04;;;;;;;6.28;2.90;;;13.00;99.90;;;;;;4986682;28;20034;-93
2023/10/20 05:53:30;;;;;;;7.63;3.60;;;13.00;99.90;;;;;;4996641;28;20034;-94
2023/10/20 05:55:55;;;;;;;6.07;2.78;;;12.90;99.90;;;;;;4995320;28;20022;-93
2023/10/20 05:58:22;;;;;;;4.93;2.85;;;12.90;99.90;;;;;;4997273;28;20022;-93
2023/10/20 06:00:48;;;;;;;6.03;2.83;;;12.90;99.90;;;;;;4997783;28;20496;-92
2023/10/20 06:03:14;;;;;;;4.35;3.00;;;12.80;99.90;;;;;;4999229;28;20026;-92
2023/10/20 06:05:40;;;;;;;7.65;3.10;;;12.80;99.90;;;;;;4995465;28;20022;-92
2023/10/20 06:08:06;;;;;;;8.60;2.92;;;12.80;99.90;;;;;;4995551;28;20045;-93
2023/10/20 06:10:36;;;;;;;6.05;2.78;;;12.80;99.90;;;;;;4996294;28;20018;-94
2023/10/20 06:13:03;;;;;;;7.75;2.80;;;12.80;99.90;;;;;;4995480;28;20031;-93
2023/10/20 06:15:29;;;;;;;4.47;2.22;;;12.70;99.90;;;;;;5000694;28;20076;-93
2023/10/20 06:17:57;;;;;;;3.22;2.50;;;12.70;99.90;;;;;;5002765;28;20388;-93
2023/10/20 06:20:22;;;;;;;5.60;2.60;;;12.70;99.90;;;;;;5001852;28;20023;-93
2023/10/20 06:22:49;;;;;;;5.80;2.65;;;12.60;99.90;;;;;;5002864;28;20034;-94
2023/10/20 06:25:16;;;;;;;4.70;2.08;;;12.70;99.90;;;;;;5000257;28;20027;-92
2023/10/20 06:27:42;;;;;;;3.45;1.88;;;12.60;99.90;;;;;;5000538;28;20069;-93
2023/10/20 06:30:22;;;;;;;3.15;1.60;;;12.60;99.90;;;;;;5003862;28;20030;-91
2023/10/20 06:32:56;;;;;;;3.47;1.45;;;12.60;99.90;;;;;;4995060;28;20070;-92
2023/10/20 06:35:32;;;;;;;4.65;1.60;;;12.60;99.90;;;;;;5000163;28;20029;-93
2023/10/20 06:40:33;;;;;;;1.50;1.30;;;12.60;99.90;;;;;;4995219;28;20520;-95
2023/10/20 06:42:59;;;;;;;1.40;1.30;;;12.50;99.90;;;;;;4994687;28;20057;-93
2023/10/20 06:45:24;;;;;;;1.73;1.02;;;12.50;99.90;;;;;;4995667;28;20022;-91
2023/10/20 06:47:50;;;;;;;1.58;1.10;;;12.50;99.90;;;;;;4995645;28;20476;-92
2023/10/20 06:50:15;;;;;;;1.52;1.30;;;12.50;99.90;;;;;;4993317;28;20030;-93
2023/10/20 06:52:41;;;;;;;3.78;1.60;;;12.50;99.90;;;;;;4995062;28;20028;-93
2023/10/20 06:55:07;;;;;;;2.83;1.60;;;12.40;99.90;;;;;;5010353;28;20476;-93
2023/10/20 06:57:33;;;;;;;2.72;1.60;;;12.50;99.90;;;;;;4994351;28;20173;-93
2023/10/20 06:59:59;;;;;;;6.78;2.97;;;12.50;99.90;;;;;;4994506;28;20449;-93
2023/10/20 07:02:25;;;;;;;6.57;2.15;;;12.40;99.90;;;;;;4995903;28;20057;-93
2023/10/20 07:04:51;;;;;;;6.28;2.45;;;12.40;99.90;;;;;;4993350;28;20072;-94
2023/10/20 07:07:18;;;;;;;8.88;2.25;;;12.40;99.90;;;;;;4995136;28;20092;-92
2023/10/20 07:09:44;;;;;;;3.75;1.88;;;12.40;99.90;;;;;;5010809;28;20506;-93
2023/10/20 07:12:10;;;;;;;6.78;2.30;;;12.40;99.90;;;;;;4995098;28;20101;-92
2023/10/20 07:14:38;;;;;;;4.93;2.00;;;12.40;99.90;;;;;;4995458;28;20057;-95
2023/10/20 07:17:06;;;;;;;2.38;1.90;;;12.30;99.90;;;;;;4994669;28;20034;-93
2023/10/20 07:19:33;;;;;;;3.15;1.35;;;12.30;99.90;;;;;;4993551;28;20480;-91
2023/10/20 07:22:05;;;;;;;4.07;1.60;;;12.30;99.90;;;;;;4994792;28;20500;-92
2023/10/20 07:24:31;;;;;;;6.70;2.30;;;12.30;99.90;;;;;;4991203;28;20030;-92
2023/10/20 07:26:58;;;;;;;4.78;2.17;;;12.30;99.90;;;;;;4994756;28;20038;-93
2023/10/20 07:29:24;;;;;;;2.65;1.63;;;12.30;99.90;;;;;;4993218;28;20033;-91
2023/10/20 07:31:49;;;;;;;4.35;1.52;;;12.30;99.90;;;;;;4992962;28;20093;-92
2023/10/20 07:34:15;;;;;;;5.13;2.20;;;12.30;99.90;;;;;;4993240;28;20018;-91
2023/10/20 07:36:42;;;;;;;4.13;2.40;;;12.20;99.90;;;;;;4993575;28;20027;-92
2023/10/20 07:39:09;;;;;;;4.28;1.85;;;12.20;99.90;;;;;;4993273;28;20061;-91
2023/10/20 07:41:35;;;;;;;3.70;1.50;;;12.20;99.90;;;;;;4993301;28;20022;-92
2023/10/20 07:44:04;;;;;;;3.38;1.27;;;12.20;99.90;;;;;;4993429;28;20502;-92
2023/10/20 07:46:31;;;;;;;4.85;1.25;;;12.20;99.90;;;;;;4993287;28;20570;-92
2023/10/20 07:48:57;;;;;;;3.75;1.20;;;12.20;99.90;;;;;;4993666;28;20494;-91
2023/10/20 07:51:23;;;;;;;3.35;1.00;;;12.20;99.90;;;;;;5000172;28;20039;-91
2023/10/20 07:53:48;;;;;;;3.78;1.13;;;12.20;99.90;;;;;;4993404;28;20558;-92
2023/10/20 07:56:14;;;;;;;2.20;0.98;;;12.10;99.90;;;;;;4993376;28;20382;-92
2023/10/20 07:58:40;;;;;;;4.45;1.75;;;12.10;99.90;;;;;;4992867;28;20669;-91
2023/10/20 08:01:06;;;;;;;4.25;1.10;;;12.10;99.90;;;;;;4994288;28;20431;-92
2023/10/20 08:03:32;;;;;;;3.17;1.30;;;12.10;99.90;;;;;;4994139;28;20042;-90
2023/10/20 08:06:02;;;;;;;2.97;1.10;;;12.10;99.90;;;;;;4993988;28;20491;-94
2023/10/20 08:08:28;;;;;;;5.35;1.08;;;12.10;99.90;;;;;;4993928;28;20026;-92
2023/10/20 08:10:54;;;;;;;3.38;1.02;;;12.10;99.90;;;;;;5009175;28;20491;-92
2023/10/20 08:13:19;;;;;;;3.75;1.05;;;12.10;99.90;;;;;;4993732;28;20550;-91
2023/10/20 08:15:45;;;;;;;3.85;1.00;;;12.00;99.90;;;;;;4993305;28;20042;-93
2023/10/20 08:18:11;;;;;;;1.48;1.00;;;12.00;99.90;;;;;;4991754;28;20038;-91
2023/10/20 08:20:37;;;;;;;1.15;0.63;;;12.00;99.90;;;;;;4988650;28;20113;-90
2023/10/20 08:23:03;;;;;;;3.33;0.90;;;12.00;99.90;;;;;;4993296;28;20033;-92
2023/10/20 08:25:29;;;;;;;2.08;0.80;;;12.00;99.90;;;;;;4992113;28;20035;-92
2023/10/20 08:27:54;;;;;;;3.58;0.73;;;12.00;99.90;;;;;;4993290;28;20030;-92
2023/10/20 08:30:20;;;;;;;2.35;0.60;;;12.00;99.90;;;;;;4992334;28;20033;-93
2023/10/20 08:32:46;;;;;;;2.58;0.65;;;12.00;99.90;;;;;;4992471;28;20022;-92
2023/10/20 08:35:14;;;;;;;0.60;0.35;;;11.90;99.90;;;;;;4994422;28;20054;-92
2023/10/20 08:37:40;;;;;;;1.08;0.63;;;11.90;99.90;;;;;;4994288;28;20093;-91
2023/10/20 08:40:10;;;;;;;2.15;0.60;;;11.90;99.90;;;;;;4998030;28;20034;-91
2023/10/20 08:42:38;;;;;;;1.95;0.32;;;11.90;99.90;;;;;;5012872;28;20022;-92
2023/10/20 08:45:07;;;;;;;3.63;0.43;;;11.90;99.90;;;;;;4994464;28;20033;-94
2023/10/20 08:47:33;;;;;;;1.13;0.38;;;11.80;99.90;;;;;;4996877;28;20042;-92
2023/10/20 08:49:59;;;;;;;0.85;0.20;;;11.80;99.90;;;;;;4994201;28;20098;-92
2023/10/20 08:52:26;;;;;;;1.67;0.30;;;11.80;99.90;;;;;;4995632;28;20057;-92
2023/10/20 08:54:53;;;;;;;0.30;0.28;;;11.80;99.90;;;;;;4993067;28;20155;-91
2023/10/20 08:57:18;;;;;;;0.90;0.22;;;11.80;99.90;;;;;;4995574;28;20026;-91
2023/10/20 08:59:51;;;;;;;0.63;0.20;;;11.80;99.90;;;;;;4995475;28;20022;-93
2023/10/20 09:02:17;;;;;;;2.10;0.32;;;11.70;99.90;;;;;;4995457;28;20030;-93
2023/10/20 09:04:43;;;;;;;0.60;0.22;;;11.80;99.90;;;;;;4995128;28;20035;-92
2023/10/20 09:07:16;;;;;;;1.35;0.30;;;11.70;99.90;;;;;;4996413;28;20035;-93
2023/10/20 09:09:42;;;;;;;0.52;0.30;;;11.70;99.90;;;;;;4993958;28;20026;-93
2023/10/20 09:12:13;;;;;;;1.10;0.30;;;11.70;99.90;;;;;;4996845;28;20027;-92
2023/10/20 09:14:39;;;;;;;0.50;0.20;;;11.70;99.90;;;;;;4995298;28;20028;-92
2023/10/20 09:17:05;;;;;;;0.75;0.15;;;11.80;99.90;;;;;;4994896;28;20035;-92
2023/10/20 09:19:31;;;;;;;0.70;0.40;;;11.70;99.90;;;;;;4994848;28;20027;-93
2023/10/20 09:21:57;;;;;;;1.42;0.50;;;11.70;99.90;;;;;;4993882;28;20034;-93
2023/10/20 09:24:34;;;;;;;2.45;0.38;;;11.70;99.90;;;;;;4996050;28;20546;-94
2023/10/20 09:27:01;;;;;;;1.42;0.35;;;11.70;99.90;;;;;;4995730;28;20101;-94
2023/10/20 09:29:30;;;;;;;1.65;0.95;;;11.70;99.90;;;;;;4998419;28;20018;-93
2023/10/20 09:31:59;;;;;;;0.80;0.20;;;11.70;99.90;;;;;;4999559;28;20044;-92
2023/10/20 09:34:25;;;;;;;4.45;0.43;;;11.70;99.90;;;;;;4996810;28;20026;-92
2023/10/20 09:36:52;;;;;;;0.95;0.47;;;11.70;99.90;;;;;;4996208;28;20547;-92
2023/10/20 09:39:29;;;;;;;1.23;0.40;;;11.70;99.90;;;;;;4994611;28;20050;-93
2023/10/20 09:42:01;;;;;;;0.63;0.20;;;11.60;99.90;;;;;;4990848;28;21016;-93
2023/10/20 09:44:39;;;;;;;0.65;0.28;;;11.60;99.90;;;;;;5011156;28;20450;-92
2023/10/20 09:47:21;;;;;;;0.40;0.20;;;11.60;99.90;;;;;;5002230;28;20085;-92
2023/10/20 09:49:47;;;;;;;1.08;0.40;;;11.60;99.90;;;;;;4991381;28;20040;-93
2023/10/20 09:52:13;;;;;;;0.50;0.20;;;11.60;99.90;;;;;;4995700;28;20034;-92
2023/10/20 09:54:39;;;;;;;2.33;0.60;;;11.60;99.90;;;;;;4994512;28;20545;-92
2023/10/20 09:57:06;;;;;;;5.55;0.50;;;11.60;99.90;;;;;;4988232;28;20030;-94
2023/10/20 09:59:31;;;;;;;6.18;0.60;;;11.60;99.90;;;;;;4995268;28;20034;-93
2023/10/20 10:01:59;;;;;;;0.70;0.35;;;11.60;99.90;;;;;;4993967;28;20022;-93
2023/10/20 10:04:28;;;;;;;2.47;0.20;;;11.60;99.90;;;;;;4994673;28;20141;-92
2023/10/20 10:06:55;;;;;;;0.80;0.30;;;11.60;99.90;;;;;;4994755;28;20057;-92
2023/10/20 10:09:22;;;;;;;4.70;0.57;;;11.60;99.90;;;;;;4989543;28;20026;-93
2023/10/20 10:11:54;;;;;;;2.22;0.60;;;11.50;99.90;;;;;;5001851;28;20029;-94
2023/10/20 10:14:22;;;;;;;2.17;0.30;;;11.50;99.90;;;;;;5005461;28;20037;-96
2023/10/20 10:16:58;;;;;;;0.35;0.20;;;11.50;99.90;;;;;;4995827;28;20068;-94
2023/10/20 10:19:25;;;;;;;0.40;0.20;;;11.50;99.90;;;;;;4989774;28;20104;-94
2023/10/20 10:21:53;;;;;;;1.75;0.40;;;11.50;99.90;;;;;;5001064;28;20022;-95
2023/10/20 10:24:21;;;;;;;1.08;0.30;;;11.50;99.90;;;;;;4997614;28;20037;-96
2023/10/20 10:26:57;;;;;;;0.60;0.20;;;11.50;99.90;;;;;;4995301;28;20262;-94
2023/10/20 10:29:53;;;;;;;2.83;0.30;;;11.50;99.90;;;;;;5006791;28;20027;-93
2023/10/20 10:32:26;;;;;;;3.75;0.50;;;11.50;99.90;;;;;;4995381;28;20047;-95
2023/10/20 10:34:52;;;;;;;0.98;0.32;;;11.40;99.90;;;;;;4994085;28;20019;-95
2023/10/20 10:37:35;;;;;;;1.48;0.25;;;11.40;99.90;;;;;;4995969;28;20098;-93
2023/10/20 10:40:13;;;;;;;1.92;0.40;;;11.40;99.90;;;;;;4994894;28;20037;-94
2023/10/20 10:42:45;;;;;;;2.47;0.50;;;11.40;99.90;;;;;;4994982;28;20080;-94
2023/10/20 10:45:27;;;;;;;3.05;0.70;;;11.30;99.90;;;;;;4994134;28;20026;-93
2023/10/20 10:48:09;;;;;;;1.67;0.43;;;11.30;99.90;;;;;;4995936;28;20034;-93
2023/10/20 10:50:43;;;;;;;0.63;0.55;;;11.30;99.90;;;;;;4990315;28;20054;-94
2023/10/20 10:53:13;;;;;;;2.05;0.50;;;11.30;99.90;;;;;;4993515;28;20112;-93
2023/10/20 10:55:40;;;;;;;2.55;0.50;;;11.30;99.90;;;;;;4991310;28;20057;-94
2023/10/20 10:58:08;;;;;;;3.15;0.30;;;11.30;99.90;;;;;;4993156;28;20030;-93
2023/10/20 11:00:35;;;;;;;1.95;0.38;;;11.30;99.90;;;;;;4992423;28;20081;-93
2023/10/20 11:03:02;;;;;;;0.90;0.38;;;11.30;99.90;;;;;;4995264;28;20026;-95
2023/10/20 11:05:29;;;;;;;2.35;0.40;;;11.30;99.90;;;;;;4992080;28;20030;-95
2023/10/20 11:08:01;;;;;;;0.55;0.30;;;11.30;99.90;;;;;;4994792;28;20066;-94
2023/10/20 11:10:28;;;;;;;2.33;0.40;;;11.20;99.90;;;;;;4991079;28;20439;-95
2023/10/20 11:12:55;;;;;;;2.90;0.40;;;11.20;99.90;;;;;;4994393;28;20526;-93
2023/10/20 11:15:24;;;;;;;1.45;0.40;;;11.20;99.90;;;;;;4990284;28;20024;-92
2023/10/20 11:17:50;;;;;;;0.47;0.20;;;11.20;99.90;;;;;;4992848;28;20037;-95
2023/10/20 11:20:19;;;;;;;1.67;0.30;;;11.20;99.90;;;;;;5012281;28;20018;-96
2023/10/20 11:22:45;;;;;;;2.28;0.50;;;11.20;99.90;;;;;;5003361;28;20034;-96
2023/10/20 11:25:19;;;;;;;1.58;0.30;;;11.20;99.90;;;;;;4998693;28;20048;-95
2023/10/20 11:27:54;;;;;;;2.88;0.40;;;11.20;99.90;;;;;;4996075;28;20482;-95
2023/10/20 11:30:28;;;;;;;1.52;0.30;;;11.30;99.90;;;;;;4994353;28;20026;-96
2023/10/20 11:32:54;;;;;;;2.17;0.38;;;11.30;99.90;;;;;;4995549;28;20034;-95
2023/10/20 11:35:27;;;;;;;3.13;0.38;;;11.30;99.90;;;;;;5003247;28;20002;-95
2023/10/20 11:37:55;;;;;;;1.13;0.20;;;11.20;99.90;;;;;;5002282;28;20054;-94
2023/10/20 11:40:21;;;;;;;0.30;0.25;;;11.30;99.90;;;;;;4995332;28;20054;-94
2023/10/20 11:42:48;;;;;;;1.85;0.50;;;11.30;99.90;;;;;;4993784;28;20036;-94
2023/10/20 11:45:14;;;;;;;2.90;0.40;;;11.20;99.90;;;;;;5006659;28;20027;-96
2023/10/20 11:47:40;;;;;;;1.00;0.32;;;11.30;99.90;;;;;;4984531;28;20030;-95
2023/10/20 11:50:11;;;;;;;1.85;0.38;;;11.30;99.90;;;;;;4998932;28;20518;-95
2023/10/20 11:52:38;;;;;;;1.02;0.40;;;11.30;99.90;;;;;;5004119;28;20019;-96
2023/10/20 11:55:05;;;;;;;1.45;0.50;;;11.30;99.90;;;;;;4994812;28;20042;-95
2023/10/20 11:57:31;;;;;;;1.52;0.30;;;11.30;99.90;;;;;;4993220;28;20042;-95
2023/10/20 12:00:01;;;;;;;1.70;0.22;;;11.30;99.90;;;;;;5007896;28;20026;-96
2023/10/20 12:02:28;;;;;;;0.85;0.40;;;11.30;99.90;;;;;;5005502;28;20010;-96
2023/10/20 12:04:54;;;;;;;1.30;0.40;;;11.30;99.90;;;;;;5012872;28;20034;-96
2023/10/20 12:07:20;;;;;;;1.75;0.45;;;11.30;99.90;;;;;;4975337;28;20027;-94
2023/10/20 12:09:46;;;;;;;3.60;0.70;;;11.30;99.90;;;;;;4982944;28;20039;-95
2023/10/20 12:12:12;;;;;;;1.05;0.50;;;11.30;99.90;;;;;;4992903;28;20026;-94
2023/10/20 12:14:38;;;;;;;3.80;0.57;;;11.30;99.90;;;;;;4993594;28;20018;-94
2023/10/20 12:17:04;;;;;;;0.88;0.40;;;11.30;99.90;;;;;;4994034;28;20041;-94
2023/10/20 12:19:29;;;;;;;0.68;0.20;;;11.30;99.90;;;;;;4993736;28;20022;-94
2023/10/20 12:21:55;;;;;;;1.90;0.55;;;11.30;99.90;;;;;;4993305;28;20073;-93
2023/10/20 12:24:21;;;;;;;2.40;0.60;;;11.30;99.90;;;;;;4997293;28;20018;-93
2023/10/20 12:26:47;;;;;;;1.60;0.70;;;11.30;99.90;;;;;;4989760;28;20038;-94
2023/10/20 12:29:13;;;;;;;0.45;0.30;;;11.30;99.90;;;;;;5007020;28;20057;-94
2023/10/20 12:31:38;;;;;;;1.35;0.52;;;11.30;99.90;;;;;;5005394;28;20473;-94
2023/10/20 12:34:05;;;;;;;0.32;0.30;;;11.30;99.90;;;;;;5007348;28;20030;-95
2023/10/20 12:36:33;;;;;;;0.52;0.28;;;11.30;99.90;;;;;;5009617;28;20022;-93
2023/10/20 12:39:00;;;;;;;0.70;0.30;;;11.30;99.90;;;;;;5010810;28;20042;-94
2023/10/20 12:41:28;;;;;;;1.38;0.45;;;11.30;99.90;;;;;;5000353;28;20022;-94
2023/10/20 12:43:54;;;;;;;0.95;0.40;;;11.30;99.90;;;;;;5002278;28;20033;-95
2023/10/20 12:46:20;;;;;;;0.95;0.50;;;11.30;99.90;;;;;;4998733;28;20022;-95
2023/10/20 12:48:46;;;;;;;2.65;0.47;;;11.30;99.90;;;;;;4998966;28;20400;-94
2023/10/20 12:51:12;;;;;;;0.77;0.40;;;11.30;99.90;;;;;;4993422;28;20038;-94
2023/10/20 12:53:39;;;;;;;1.58;0.32;;;11.20;99.90;;;;;;4991262;28;20026;-95
2023/10/20 12:56:06;;;;;;;1.58;0.63;;;11.20;99.90;;;;;;4994045;28;20037;-95
2023/10/20 12:58:32;;;;;;;2.70;0.47;;;11.30;99.90;;;;;;4993801;28;20070;-95
2023/10/20 13:00:58;;;;;;;1.40;0.68;;;11.20;99.90;;;;;;4995117;28;20488;-96
2023/10/20 13:03:26;;;;;;;1.27;0.40;;;11.20;99.90;;;;;;4996419;28;20157;-94
2023/10/20 13:05:53;;;;;;;0.43;0.30;;;11.20;99.90;;;;;;4988402;28;20112;-94
2023/10/20 13:08:18;;;;;;;3.97;0.68;;;11.20;99.90;;;;;;4995141;28;20037;-93
2023/10/20 13:10:46;;;;;;;2.22;0.90;;;11.20;99.90;;;;;;5010497;28;20018;-93
2023/10/20 13:13:12;;;;;;;1.45;0.60;;;11.20;99.90;;;;;;4993440;28;20042;-94
2023/10/20 13:15:38;;;;;;;0.82;0.32;;;11.10;99.90;;;;;;4995335;28;20113;-94
2023/10/20 13:18:04;;;;;;;1.90;0.60;;;11.20;99.90;;;;;;4997171;28;20064;-92
2023/10/20 13:20:30;;;;;;;3.40;0.73;;;11.10;99.90;;;;;;4998350;28;20027;-96
2023/10/20 13:22:56;;;;;;;2.83;0.80;;;11.20;99.90;;;;;;4999923;28;20030;-95
2023/10/20 13:25:27;;;;;;;1.52;0.55;;;11.20;99.90;;;;;;5005966;28;20029;-95